Terminal Aerodrome Forecast
Issued by NWS

Home | Current Version | Previous Version | Text Only | Print | Product List | Glossary On
Versions: 1 2 3 4 5 6 7 8 9 10 11 12 13 14 15 16 17 18 19 20 21 22 23 24 25 26 27 28 29 30 31 32 33 34 35 36
000
FTUS42 KMFL 222323
TAFFXE
TAF
KFXE 222323Z 2300/2324 08003KT P6SM -RA FEW030 OVC110
     FM231400 07010KT 5SM RA VCTS BKN030CB OVC150=

USA.gov is the U.S. government's official web portal to all federal, state and local government web resources and services.